Time;durP1;ratioP1;P1;durP2;ratioP2;P2;SDS_P1;SDS_P2;PMS_P1;PMS_P2;Temp;Humidity;BMP_temperature;BMP_pressure;BME280_temperature;BME280_humidity;BME280_pressure;Samples;Min_cycle;Max_cycle;Signal;HPM_P1;HPM_P2
2021/10/11 00:00:29;;;;;;;21.13;9.63;;;;;;;8.43;100.00;101108.63;1737779;82;21026;-86
2021/10/11 00:02:57;;;;;;;19.10;9.83;;;;;;;8.39;100.00;101109.34;1737796;82;21043;-85
2021/10/11 00:05:24;;;;;;;20.93;10.10;;;;;;;8.35;100.00;101103.87;1738212;83;21046;-85
2021/10/11 00:07:52;;;;;;;20.70;10.70;;;;;;;8.32;100.00;101105.47;1737806;83;21074;-86
2021/10/11 00:10:20;;;;;;;21.90;11.40;;;;;;;8.28;100.00;101103.53;1738158;83;20979;-85
2021/10/11 00:12:48;;;;;;;21.47;11.00;;;;;;;8.25;100.00;101101.12;1737922;83;20975;-86
2021/10/11 00:15:17;;;;;;;22.13;10.77;;;;;;;8.22;100.00;101103.22;1738036;82;21054;-86
2021/10/11 00:17:44;;;;;;;23.27;11.60;;;;;;;8.19;100.00;101097.58;1738029;83;21057;-85
2021/10/11 00:20:11;;;;;;;20.77;11.17;;;;;;;8.15;100.00;101090.25;1737943;83;21049;-85
2021/10/11 00:22:38;;;;;;;22.30;11.70;;;;;;;8.13;100.00;101097.61;1737979;83;21070;-86
2021/10/11 00:25:07;;;;;;;20.87;11.87;;;;;;;8.11;100.00;101096.02;1736689;82;21073;-86
2021/10/11 00:27:34;;;;;;;21.70;12.03;;;;;;;8.08;100.00;101097.14;1723574;82;21050;-85
2021/10/11 00:30:04;;;;;;;24.23;11.67;;;;;;;8.05;100.00;101090.66;1723678;83;21087;-86
2021/10/11 00:32:32;;;;;;;20.93;11.57;;;;;;;8.04;100.00;101090.78;1657515;85;21068;-85
2021/10/11 00:34:58;;;;;;;21.43;11.87;;;;;;;8.02;100.00;101091.41;1657784;87;21043;-86
2021/10/11 00:37:25;;;;;;;22.17;12.33;;;;;;;7.99;100.00;101086.64;1657752;87;21060;-85
2021/10/11 00:39:52;;;;;;;21.90;11.70;;;;;;;7.97;100.00;101085.92;1660461;86;21537;-84
2021/10/11 00:42:19;;;;;;;20.17;11.23;;;;;;;7.95;100.00;101081.16;1631555;87;21138;-84
2021/10/11 00:44:46;;;;;;;21.90;12.33;;;;;;;7.93;100.00;101083.13;1654351;87;21023;-85
2021/10/11 00:47:13;;;;;;;22.57;11.50;;;;;;;7.92;100.00;101076.02;1664219;86;21047;-85
2021/10/11 00:49:40;;;;;;;22.47;11.73;;;;;;;7.90;100.00;101075.30;1666927;86;21028;-85
2021/10/11 00:52:07;;;;;;;23.07;11.57;;;;;;;7.88;100.00;101075.92;1667030;86;21012;-85
2021/10/11 00:54:34;;;;;;;21.77;11.07;;;;;;;7.86;100.00;101070.29;1666930;86;21063;-85
2021/10/11 00:57:01;;;;;;;21.53;10.90;;;;;;;7.84;100.00;101073.11;1666861;86;21141;-84
2021/10/11 00:59:29;;;;;;;22.53;11.63;;;;;;;7.84;100.00;101074.45;1666757;86;21040;-86
2021/10/11 01:01:56;;;;;;;21.90;11.57;;;;;;;7.80;100.00;101072.51;1666731;86;21614;-84
2021/10/11 01:04:23;;;;;;;20.60;10.97;;;;;;;7.79;100.00;101067.25;1667089;86;20984;-86
2021/10/11 01:06:50;;;;;;;21.97;11.33;;;;;;;7.76;100.00;101058.11;1667230;86;21089;-86
2021/10/11 01:09:18;;;;;;;22.17;11.17;;;;;;;7.73;100.00;101065.08;1666728;86;21019;-85
2021/10/11 01:11:49;;;;;;;22.20;11.07;;;;;;;7.71;100.00;101063.86;1666809;85;21095;-86
2021/10/11 01:14:14;;;;;;;20.77;11.10;;;;;;;7.67;100.00;101062.41;1663757;86;21151;-86
2021/10/11 01:16:41;;;;;;;19.97;10.83;;;;;;;7.62;100.00;101057.05;1666894;86;21067;-87
2021/10/11 01:19:08;;;;;;;19.07;10.33;;;;;;;7.56;100.00;101059.27;1667184;86;21040;-86
2021/10/11 01:21:35;;;;;;;23.97;11.13;;;;;;;7.51;100.00;101053.91;1666595;86;21056;-85
2021/10/11 01:24:01;;;;;;;21.20;11.00;;;;;;;7.46;100.00;101054.77;1667036;86;21020;-87
2021/10/11 01:26:42;;;;;;;22.43;10.70;;;;;;;7.39;100.00;101055.76;1671716;85;21030;-85
2021/10/11 01:29:10;;;;;;;23.60;10.80;;;;;;;7.32;100.00;101056.74;1594525;90;21108;-86
2021/10/11 01:31:37;;;;;;;20.63;11.13;;;;;;;7.26;100.00;101049.66;1594025;90;21270;-86
2021/10/11 01:34:04;;;;;;;19.97;10.30;;;;;;;7.20;100.00;101049.67;1593945;90;21186;-85
2021/10/11 01:36:31;;;;;;;20.50;10.97;;;;;;;7.17;100.00;101048.56;1616540;89;21040;-85
2021/10/11 01:39:01;;;;;;;22.80;10.40;;;;;;;7.14;100.00;101044.80;1619793;89;21066;-85
2021/10/11 01:41:28;;;;;;;20.00;10.63;;;;;;;7.09;100.00;101048.34;1645768;87;21028;-85
2021/10/11 01:43:56;;;;;;;18.60;9.43;;;;;;;7.06;100.00;101041.86;1645355;87;21056;-85
2021/10/11 01:46:23;;;;;;;18.10;9.97;;;;;;;7.01;100.00;101036.38;1626603;87;21560;-86
2021/10/11 01:48:50;;;;;;;23.10;10.60;;;;;;;6.96;100.00;101043.11;1650367;87;21593;-86
2021/10/11 01:51:17;;;;;;;19.93;10.17;;;;;;;6.89;100.00;101039.17;1621557;89;21505;-85
2021/10/11 01:53:45;;;;;;;23.07;9.70;;;;;;;6.81;100.00;101044.67;1621304;89;21539;-85
2021/10/11 01:56:13;;;;;;;17.40;9.47;;;;;;;6.74;100.00;101045.30;1621347;88;21060;-87
2021/10/11 01:58:40;;;;;;;17.93;9.83;;;;;;;6.69;100.00;101050.17;1621288;89;21101;-86
2021/10/11 02:01:08;;;;;;;21.77;10.10;;;;;;;6.63;100.00;101046.99;1621377;89;21595;-86
2021/10/11 02:03:34;;;;;;;21.83;10.63;;;;;;;6.59;100.00;101048.72;1621410;89;21146;-86
2021/10/11 02:06:01;;;;;;;20.87;10.13;;;;;;;6.55;100.00;101052.59;1621370;89;21049;-85
2021/10/11 02:08:28;;;;;;;22.23;10.37;;;;;;;6.53;100.00;101048.69;1621396;89;21026;-84
2021/10/11 02:10:55;;;;;;;19.27;9.83;;;;;;;6.51;100.00;101053.83;1621590;89;21081;-86
2021/10/11 02:13:22;;;;;;;17.80;9.33;;;;;;;6.46;100.00;101050.14;1621600;89;21073;-86
2021/10/11 02:15:49;;;;;;;19.87;9.70;;;;;;;6.41;100.00;101049.64;1621683;89;21041;-86
2021/10/11 02:18:16;;;;;;;22.27;10.13;;;;;;;6.36;100.00;101050.52;1621487;89;21096;-87
2021/10/11 02:20:43;;;;;;;22.93;10.10;;;;;;;6.32;100.00;101046.33;1621720;89;21106;-86
2021/10/11 02:23:11;;;;;;;19.50;9.60;;;;;;;6.23;100.00;101046.09;1621720;89;21065;-87
2021/10/11 02:25:40;;;;;;;21.40;10.23;;;;;;;6.17;100.00;101047.05;1667973;84;21061;-86
2021/10/11 02:28:07;;;;;;;19.67;10.00;;;;;;;6.10;100.00;101044.46;1766918;81;21013;-86
2021/10/11 02:30:35;;;;;;;25.30;10.60;;;;;;;6.04;100.00;101038.58;1766919;81;21021;-86
2021/10/11 02:33:02;;;;;;;18.80;9.60;;;;;;;5.98;100.00;101033.66;1766638;81;21029;-87
2021/10/11 02:35:29;;;;;;;19.07;8.97;;;;;;;5.94;100.00;101034.85;1767327;81;20950;-87
2021/10/11 02:37:55;;;;;;;20.20;9.57;;;;;;;5.91;100.00;101025.68;1767180;81;21009;-87
2021/10/11 02:40:23;;;;;;;19.83;9.93;;;;;;;5.88;100.00;101024.59;1739721;81;20990;-87
2021/10/11 02:42:50;;;;;;;19.87;9.47;;;;;;;5.85;100.00;101018.11;1736173;82;21034;-87
2021/10/11 02:45:17;;;;;;;17.50;9.30;;;;;;;5.81;100.00;101017.48;1737970;82;21572;-85
2021/10/11 02:47:44;;;;;;;18.23;8.97;;;;;;;5.80;100.00;101022.97;1750232;82;21337;-86
2021/10/11 02:50:11;;;;;;;20.80;10.03;;;;;;;5.78;100.00;101022.23;1719523;82;20971;-85
2021/10/11 02:52:38;;;;;;;20.10;11.03;;;;;;;5.75;100.00;101021.96;1750807;82;21066;-85
2021/10/11 02:55:06;;;;;;;21.37;10.87;;;;;;;5.77;100.00;101021.84;1750931;82;21030;-85
2021/10/11 02:57:34;;;;;;;21.63;10.27;;;;;;;5.79;100.00;101020.78;1720238;82;21043;-86
2021/10/11 03:00:02;;;;;;;21.13;10.27;;;;;;;5.82;100.00;101015.16;1751155;82;20978;-86
2021/10/11 03:02:29;;;;;;;19.17;9.27;;;;;;;5.86;100.00;101013.09;1750792;81;21022;-86
2021/10/11 03:04:57;;;;;;;23.00;10.17;;;;;;;5.88;100.00;101005.80;1750842;82;20994;-87
2021/10/11 03:07:24;;;;;;;19.60;9.60;;;;;;;5.87;100.00;101003.59;1750772;81;21358;-85
2021/10/11 03:09:51;;;;;;;18.80;9.10;;;;;;;5.86;100.00;101004.58;1750843;81;21057;-86
2021/10/11 03:12:18;;;;;;;20.60;10.57;;;;;;;5.85;100.00;101000.66;1750849;82;21033;-86
2021/10/11 03:14:46;;;;;;;20.17;9.77;;;;;;;5.82;100.00;100995.52;1751195;81;21050;-87
2021/10/11 03:17:13;;;;;;;21.53;10.17;;;;;;;5.79;100.00;100993.06;1751125;82;21053;-88
2021/10/11 03:19:42;;;;;;;22.20;10.70;;;;;;;5.75;100.00;100984.88;1720034;82;21046;-87
2021/10/11 03:22:09;;;;;;;20.60;10.13;;;;;;;5.73;100.00;100989.02;1751132;82;21042;-87
2021/10/11 03:24:36;;;;;;;20.77;10.10;;;;;;;5.70;100.00;100979.39;1750832;81;20963;-86
2021/10/11 03:27:03;;;;;;;21.23;10.70;;;;;;;5.69;100.00;100984.88;1744600;81;20995;-87
2021/10/11 03:29:33;;;;;;;18.80;9.70;;;;;;;5.70;100.00;100985.22;1740159;82;21019;-87
2021/10/11 03:32:00;;;;;;;18.80;9.97;;;;;;;5.72;100.00;100983.30;1740110;82;21018;-86
2021/10/11 03:34:27;;;;;;;20.27;10.07;;;;;;;5.73;100.00;100987.68;1740767;82;20967;-85
2021/10/11 03:36:54;;;;;;;23.13;10.23;;;;;;;5.75;100.00;100982.20;1740684;82;21015;-86
2021/10/11 03:39:21;;;;;;;23.30;10.13;;;;;;;5.74;100.00;100982.70;1740753;82;21060;-88
2021/10/11 03:41:48;;;;;;;23.57;11.10;;;;;;;5.73;100.00;100985.00;1740473;82;21015;-86
2021/10/11 03:44:15;;;;;;;21.67;11.13;;;;;;;5.71;100.00;100985.61;1740579;82;21287;-86
2021/10/11 03:46:42;;;;;;;21.90;10.73;;;;;;;5.71;100.00;100984.27;1740675;82;20980;-85
2021/10/11 03:49:09;;;;;;;21.93;10.80;;;;;;;5.69;100.00;100984.88;1740545;82;21043;-87
2021/10/11 03:51:36;;;;;;;23.57;11.47;;;;;;;5.70;100.00;100987.44;1740517;82;21031;-88
2021/10/11 03:54:03;;;;;;;24.00;10.43;;;;;;;5.72;100.00;100985.98;1740397;82;21054;-86
2021/10/11 03:56:30;;;;;;;19.87;10.53;;;;;;;5.76;100.00;100985.27;1740380;82;21062;-87
2021/10/11 03:58:57;;;;;;;23.53;10.70;;;;;;;5.80;100.00;100981.37;1740818;82;20963;-88
2021/10/11 04:01:24;;;;;;;21.13;10.47;;;;;;;5.83;100.00;100975.28;1740754;82;21014;-85
2021/10/11 04:03:52;;;;;;;23.93;10.93;;;;;;;5.87;100.00;100977.23;1740942;82;21032;-86
2021/10/11 04:06:19;;;;;;;20.63;10.53;;;;;;;5.91;100.00;100973.33;1740822;82;21465;-87
2021/10/11 04:08:48;;;;;;;21.60;9.87;;;;;;;5.95;100.00;100971.27;1740774;82;21073;-85
2021/10/11 04:13:44;;;;;;;22.33;10.80;;;;;;;5.98;100.00;100963.86;1740353;82;21017;-89
2021/10/11 04:16:11;;;;;;;23.97;10.90;;;;;;;5.98;100.00;100965.20;1740026;82;21030;-87
2021/10/11 04:18:38;;;;;;;24.23;10.07;;;;;;;5.99;100.00;100956.19;1740054;82;21038;-84
2021/10/11 04:21:05;;;;;;;23.60;10.37;;;;;;;6.03;100.00;100958.16;1740325;82;21050;-88
2021/10/11 04:23:32;;;;;;;26.10;10.87;;;;;;;6.07;100.00;100959.14;1740668;82;21017;-87
2021/10/11 04:25:59;;;;;;;18.90;9.90;;;;;;;6.11;100.00;100955.73;1738903;82;21042;-85
2021/10/11 04:28:26;;;;;;;21.43;9.87;;;;;;;6.18;100.00;100954.74;1705879;84;21033;-86
2021/10/11 04:30:53;;;;;;;26.53;11.23;;;;;;;6.23;100.00;100955.23;1706423;84;21033;-86
2021/10/11 04:33:24;;;;;;;26.37;11.50;;;;;;;6.27;100.00;100950.02;1706417;83;21053;-85
2021/10/11 04:35:52;;;;;;;21.20;10.60;;;;;;;6.34;100.00;100950.36;1706710;84;21022;-85
2021/10/11 04:38:20;;;;;;;23.30;10.67;;;;;;;6.38;100.00;100947.32;1705280;84;21058;-85
2021/10/11 04:40:47;;;;;;;24.50;11.20;;;;;;;6.43;100.00;100944.28;1705585;83;21532;-83
2021/10/11 04:43:14;;;;;;;27.50;13.30;;;;;;;6.47;100.00;100940.36;1705639;84;21539;-86
2021/10/11 04:45:41;;;;;;;25.87;12.50;;;;;;;6.52;100.00;100942.70;1705811;84;20971;-83
2021/10/11 04:48:10;;;;;;;25.43;11.43;;;;;;;6.55;100.00;100937.05;1705625;84;21069;-84
2021/10/11 04:50:39;;;;;;;22.73;11.03;;;;;;;6.59;100.00;100934.50;1705535;82;21503;-83
2021/10/11 04:53:06;;;;;;;21.30;10.63;;;;;;;6.64;100.00;100930.96;1705695;84;21066;-82
2021/10/11 04:55:33;;;;;;;27.87;11.90;;;;;;;6.70;100.00;100936.33;1705928;84;21512;-85
2021/10/11 04:58:00;;;;;;;23.63;12.03;;;;;;;6.74;100.00;100932.41;1705973;84;21070;-85
2021/10/11 05:00:28;;;;;;;24.40;11.70;;;;;;;6.79;100.00;100936.42;1705799;83;21030;-84
2021/10/11 05:02:55;;;;;;;27.07;11.73;;;;;;;6.85;100.00;100931.03;1706097;83;21048;-85
2021/10/11 05:05:22;;;;;;;27.33;12.77;;;;;;;6.91;100.00;100923.81;1705958;84;21030;-81
2021/10/11 05:07:49;;;;;;;26.47;11.40;;;;;;;6.96;100.00;100924.30;1705839;83;21022;-83
2021/10/11 05:10:16;;;;;;;24.07;11.80;;;;;;;7.02;100.00;100925.13;1705551;84;21045;-84
2021/10/11 05:12:44;;;;;;;21.77;11.00;;;;;;;7.05;100.00;100921.34;1705217;84;21037;-82
2021/10/11 05:15:11;;;;;;;24.93;11.60;;;;;;;7.09;100.00;100917.41;1704063;84;21593;-77
2021/10/11 05:17:40;;;;;;;23.30;11.50;;;;;;;7.13;100.00;100920.20;1703272;84;21077;-74
2021/10/11 05:20:08;;;;;;;27.07;13.77;;;;;;;7.18;100.00;100919.33;1704054;84;21018;-72
2021/10/11 05:22:37;;;;;;;23.97;12.67;;;;;;;7.26;100.00;100924.09;1703972;84;21057;-76
2021/10/11 05:25:06;;;;;;;23.67;11.37;;;;;;;7.31;100.00;100919.19;1704295;84;21646;-75
2021/10/11 05:27:33;;;;;;;26.90;13.60;;;;;;;7.36;100.00;100925.00;1724891;82;21042;-77
2021/10/11 05:30:00;;;;;;;79.00;49.83;;;;;;;7.40;100.00;100919.75;1738800;82;21089;-77
2021/10/11 05:32:30;;;;;;;33.00;14.37;;;;;;;7.43;100.00;100925.35;1738709;82;21058;-77
2021/10/11 05:34:58;;;;;;;25.40;11.43;;;;;;;7.48;100.00;100923.62;1738389;82;21026;-75
2021/10/11 05:37:26;;;;;;;24.23;12.47;;;;;;;7.51;100.00;100920.19;1738574;82;21093;-72
2021/10/11 05:39:53;;;;;;;32.27;13.50;;;;;;;7.54;100.00;100915.90;1711568;82;21041;-74
2021/10/11 05:42:19;;;;;;;28.60;13.10;;;;;;;7.59;100.00;100913.64;1699536;84;21029;-76
2021/10/11 05:44:46;;;;;;;215.70;156.27;;;;;;;7.64;100.00;100921.84;1669968;86;21054;-74
2021/10/11 05:47:13;;;;;;;40.93;21.63;;;;;;;7.68;100.00;100916.55;1714800;84;21532;-73
2021/10/11 05:49:40;;;;;;;62.77;37.83;;;;;;;7.70;100.00;100913.22;1694854;82;20978;-74
2021/10/11 05:52:07;;;;;;;54.00;34.37;;;;;;;7.75;100.00;100913.69;1683129;85;21045;-75
2021/10/11 05:54:34;;;;;;;24.93;13.53;;;;;;;7.80;100.00;100913.65;1681451;85;20984;-75
2021/10/11 05:57:01;;;;;;;24.20;12.87;;;;;;;7.87;100.00;100911.29;1644217;86;21210;-75
2021/10/11 05:59:28;;;;;;;33.77;14.93;;;;;;;7.96;100.00;100918.56;1681221;85;21032;-75
2021/10/11 06:01:55;;;;;;;31.00;14.33;;;;;;;8.00;100.00;100909.73;1658075;87;21061;-75
2021/10/11 06:04:22;;;;;;;36.50;19.73;;;;;;;8.04;100.00;100913.88;1692177;84;21099;-76
2021/10/11 06:06:49;;;;;;;61.07;30.97;;;;;;;8.09;100.00;100917.03;1691327;84;21033;-77
2021/10/11 06:09:18;;;;;;;45.80;23.50;;;;;;;8.15;100.00;100918.33;1713634;84;21020;-74
2021/10/11 06:11:46;;;;;;;44.57;22.70;;;;;;;8.20;100.00;100918.78;1712311;84;20995;-75
2021/10/11 06:14:14;;;;;;;47.60;22.83;;;;;;;8.29;100.00;100917.97;1712705;84;21514;-77
2021/10/11 06:16:42;;;;;;;57.07;28.40;;;;;;;8.35;100.00;100917.92;1737263;81;21441;-74
2021/10/11 06:19:09;;;;;;;58.00;27.37;;;;;;;8.42;100.00;100922.28;1742746;80;21151;-77
2021/10/11 06:21:36;;;;;;;36.13;17.47;;;;;;;8.48;100.00;100914.55;1737209;82;20991;-77
2021/10/11 06:24:03;;;;;;;35.50;16.70;;;;;;;8.51;100.00;100909.36;1711317;83;21030;-78
2021/10/11 06:26:32;;;;;;;30.90;15.53;;;;;;;8.57;100.00;100907.95;1737387;81;21018;-75
2021/10/11 06:28:59;;;;;;;32.50;14.43;;;;;;;8.61;100.00;100896.78;1733878;81;20974;-77
2021/10/11 06:31:26;;;;;;;32.80;13.30;;;;;;;8.68;100.00;100897.09;1729889;81;21049;-76
2021/10/11 06:33:53;;;;;;;27.10;12.50;;;;;;;8.72;100.00;100895.30;1733633;81;20999;-76
2021/10/11 06:36:20;;;;;;;34.67;16.73;;;;;;;8.81;100.00;100892.78;1745044;82;21500;-78
2021/10/11 06:38:47;;;;;;;33.43;15.57;;;;;;;8.89;100.00;100895.14;1741185;81;21010;-75
2021/10/11 06:41:14;;;;;;;29.93;14.90;;;;;;;8.99;100.00;100895.64;1741096;82;20995;-79
2021/10/11 06:43:40;;;;;;;28.20;13.70;;;;;;;9.08;100.00;100898.37;1758417;81;20942;-78
2021/10/11 06:46:07;;;;;;;31.27;14.00;;;;;;;9.16;100.00;100895.47;1731907;82;20966;-74
2021/10/11 06:48:34;;;;;;;24.50;12.53;;;;;;;9.25;100.00;100894.11;1701847;82;21029;-74
2021/10/11 06:51:01;;;;;;;26.40;12.73;;;;;;;9.34;100.00;100892.41;1679081;85;21523;-75
2021/10/11 06:53:28;;;;;;;31.53;13.87;;;;;;;9.44;100.00;100883.81;1704917;84;21111;-74
2021/10/11 06:55:55;;;;;;;27.80;13.53;;;;;;;9.53;100.00;100882.10;1701375;83;21045;-75
2021/10/11 06:58:22;;;;;;;31.30;15.23;;;;;;;9.61;100.00;100880.02;1690851;83;21533;-74
2021/10/11 07:00:49;;;;;;;26.83;13.13;;;;;;;9.65;100.00;100878.73;1729062;81;20986;-76
2021/10/11 07:03:23;;;;;;;25.77;12.73;;;;;;;9.70;100.00;100880.50;1729885;81;21018;-75
2021/10/11 07:05:44;;;;;;;30.03;12.73;;;;;;;9.77;100.00;100883.48;1722164;81;21551;-76
2021/10/11 07:08:11;;;;;;;28.97;13.07;;;;;;;9.82;100.00;100876.63;1738980;81;21011;-77
2021/10/11 07:10:41;;;;;;;35.83;13.93;;;;;;;9.88;100.00;100870.66;1736556;82;21110;-74
2021/10/11 07:13:08;;;;;;;31.97;14.58;;;;;;;9.93;100.00;100865.31;1736432;82;21457;-75
2021/10/11 07:15:35;;;;;;;26.68;12.18;;;;;;;10.00;100.00;100871.83;1761208;80;21064;-75
2021/10/11 07:18:02;;;;;;;26.43;12.40;;;;;;;10.08;100.00;100861.98;1734732;82;20999;-75
2021/10/11 07:20:28;;;;;;;29.15;13.62;;;;;;;10.16;100.00;100854.48;1736594;82;21002;-76
2021/10/11 07:22:55;;;;;;;29.05;13.28;;;;;;;10.25;100.00;100852.73;1734290;82;21018;-75
2021/10/11 07:25:22;;;;;;;25.88;12.23;;;;;;;10.31;100.00;100851.31;1739173;81;21038;-79
2021/10/11 07:27:49;;;;;;;34.75;15.88;;;;;;;10.38;100.00;100844.34;1746108;81;21143;-80
2021/10/11 07:30:16;;;;;;;31.33;15.80;;;;;;;10.48;100.00;100840.22;1746015;80;21084;-76
2021/10/11 07:32:42;;;;;;;25.92;12.13;;;;;;;10.61;100.00;100837.51;1777658;80;21529;-77
2021/10/11 07:35:09;;;;;;;37.67;20.48;;;;;;;10.73;100.00;100838.16;1738044;82;21035;-76
2021/10/11 07:37:36;;;;;;;26.85;12.58;;;;;;;10.79;100.00;100840.23;1740324;82;21023;-77
2021/10/11 07:40:04;;;;;;;24.20;12.30;;;;;;;10.85;100.00;100844.17;1738120;82;21500;-78
2021/10/11 07:42:31;;;;;;;25.75;12.80;;;;;;;10.87;100.00;100838.62;1742364;82;20971;-76
2021/10/11 07:45:02;;;;;;;24.98;12.25;;;;;;;10.92;100.00;100839.84;1736927;82;20975;-76
2021/10/11 07:47:34;;;;;;;24.30;11.88;;;;;;;10.99;100.00;100840.94;1735778;82;21108;-77
2021/10/11 07:50:04;;;;;;;20.72;10.90;;;;;;;11.06;100.00;100838.47;1729967;81;21053;-74
2021/10/11 07:52:32;;;;;;;22.73;10.95;;;;;;;11.11;100.00;100834.80;1727418;81;20978;-75
2021/10/11 07:54:59;;;;;;;22.80;11.35;;;;;;;11.15;100.00;100838.88;1732119;82;21026;-77
2021/10/11 07:57:25;;;;;;;24.05;10.78;;;;;;;11.23;100.00;100834.58;1729917;81;21042;-77
2021/10/11 07:59:52;;;;;;;22.05;10.80;;;;;;;11.29;100.00;100831.23;1732639;81;21035;-77
2021/10/11 08:02:19;;;;;;;25.43;11.85;;;;;;;11.37;100.00;100829.44;1737827;82;21014;-79
2021/10/11 08:04:47;;;;;;;24.30;11.10;;;;;;;11.44;100.00;100835.09;1735743;82;21535;-77
2021/10/11 08:07:14;;;;;;;19.27;9.50;;;;;;;11.48;100.00;100822.92;1732924;81;21068;-81
2021/10/11 08:09:40;;;;;;;21.17;10.25;;;;;;;11.55;100.00;100821.28;1732460;83;21011;-79
2021/10/11 08:12:09;;;;;;;23.70;10.75;;;;;;;11.57;100.00;100821.13;1726788;82;21003;-75
2021/10/11 08:14:36;;;;;;;23.42;11.12;;;;;;;11.61;100.00;100825.72;1740924;82;20979;-76
2021/10/11 08:17:03;;;;;;;27.48;12.55;;;;;;;11.65;100.00;100823.03;1713864;82;21057;-74
2021/10/11 08:19:33;;;;;;;23.52;11.38;;;;;;;11.67;100.00;100821.88;1673060;83;21182;-79
2021/10/11 08:21:59;;;;;;;26.33;11.25;;;;;;;11.68;100.00;100824.91;1704982;84;21013;-77
2021/10/11 08:24:25;;;;;;;22.48;10.40;;;;;;;11.67;100.00;100819.66;1704929;83;21100;-79
2021/10/11 08:26:52;;;;;;;27.35;11.80;;;;;;;11.66;100.00;100824.74;1703748;84;21057;-76
2021/10/11 08:29:19;;;;;;;24.52;12.50;;;;;;;11.68;100.00;100824.08;1710014;82;21010;-81
2021/10/11 08:31:46;;;;;;;30.82;11.43;;;;;;;11.69;100.00;100825.79;1718574;82;21539;-81
2021/10/11 08:34:12;;;;;;;24.55;11.65;;;;;;;11.68;100.00;100827.63;1675230;85;21142;-75
2021/10/11 08:36:41;;;;;;;27.87;12.55;;;;;;;11.67;100.00;100826.42;1740017;82;21166;-73
2021/10/11 08:39:08;;;;;;;22.00;11.48;;;;;;;11.65;100.00;100821.19;1737179;81;21554;-72
2021/10/11 08:41:35;;;;;;;24.92;11.73;;;;;;;11.65;100.00;100818.48;1742865;81;21030;-77
2021/10/11 08:44:02;;;;;;;22.80;10.95;;;;;;;11.67;100.00;100819.17;1744791;82;21571;-74
2021/10/11 08:46:29;;;;;;;27.42;12.60;;;;;;;11.72;100.00;100815.96;1746477;81;20966;-75
2021/10/11 08:48:57;;;;;;;30.97;12.63;;;;;;;11.73;100.00;100810.39;1741176;81;21057;-73
2021/10/11 08:51:24;;;;;;;25.95;10.90;;;;;;;11.80;100.00;100801.64;1745416;81;21022;-75
2021/10/11 08:53:51;;;;;;;26.60;10.98;;;;;;;11.89;100.00;100803.37;1739237;81;21038;-75
2021/10/11 08:56:19;;;;;;;24.52;10.50;;;;;;;12.02;100.00;100796.18;1745724;81;20998;-77
2021/10/11 08:59:00;;;;;;;24.90;11.28;;;;;;;12.23;100.00;100788.99;1746096;80;21061;-78
2021/10/11 09:01:34;;;;;;;24.55;11.78;;;;;;;12.40;100.00;100779.91;1740132;80;21120;-75
2021/10/11 09:04:20;;;;;;;23.95;10.40;;;;;;;12.62;100.00;100780.30;1740045;82;20963;-73
2021/10/11 09:07:06;;;;;;;24.47;10.03;;;;;;;12.74;100.00;100777.60;1740114;82;20990;-80
2021/10/11 09:09:35;;;;;;;20.62;10.23;;;;;;;12.81;100.00;100781.34;1738950;80;21515;-76
2021/10/11 09:12:03;;;;;;;21.48;11.33;;;;;;;12.85;100.00;100774.55;1735623;81;21076;-77
2021/10/11 09:14:29;;;;;;;19.60;9.48;;;;;;;12.96;100.00;100776.11;1742215;81;21002;-77
2021/10/11 09:17:03;;;;;;;25.20;10.98;;;;;;;13.02;100.00;100775.94;1711063;82;21100;-78
2021/10/11 09:19:36;;;;;;;23.62;10.08;;;;;;;13.05;100.00;100767.44;1681269;83;21044;-74
2021/10/11 09:22:04;;;;;;;23.38;10.18;;;;;;;13.10;100.00;100760.99;1698309;84;21488;-77
2021/10/11 09:24:32;;;;;;;28.40;14.13;;;;;;;13.13;100.00;100760.66;1697510;84;21149;-74
2021/10/11 09:26:59;;;;;;;22.37;9.93;;;;;;;13.18;100.00;100760.16;1698460;84;21025;-74
2021/10/11 09:29:36;;;;;;;23.07;9.98;;;;;;;13.20;100.00;100756.23;1697239;83;21042;-76
2021/10/11 09:32:07;;;;;;;26.15;10.95;;;;;;;13.24;100.00;100754.91;1668091;85;21218;-76
2021/10/11 09:34:40;;;;;;;21.93;10.03;;;;;;;13.26;100.00;100751.50;1733710;81;21018;-78
2021/10/11 09:37:12;;;;;;;24.40;10.10;;;;;;;13.23;100.00;100746.41;1729359;82;20947;-77
2021/10/11 09:39:40;;;;;;;20.17;8.75;;;;;;;13.28;100.00;100741.31;1739856;82;21014;-77
2021/10/11 09:42:10;;;;;;;21.80;9.63;;;;;;;13.44;100.00;100729.60;1738658;81;21050;-77
2021/10/11 09:44:38;;;;;;;21.95;11.33;;;;;;;13.61;100.00;100732.27;1733217;82;21022;-73
2021/10/11 09:47:10;;;;;;;29.07;10.03;;;;;;;13.88;100.00;100722.83;1730654;82;21433;-78
2021/10/11 09:49:38;;;;;;;20.62;8.80;;;;;;;14.23;100.00;100721.98;1737345;82;21002;-75
2021/10/11 09:52:05;;;;;;;21.02;8.73;;;;;;;14.44;92.60;100724.92;1738954;80;21003;-74
2021/10/11 09:54:32;;;;;;;26.77;9.45;;;;;;;14.41;88.40;100714.91;1729623;81;21018;-74
2021/10/11 09:56:59;;;;;;;21.33;10.10;;;;;;;14.35;86.16;100715.12;1731681;82;20979;-76
2021/10/11 09:59:28;;;;;;;21.77;9.03;;;;;;;14.24;87.52;100706.02;1742552;80;20987;-75
2021/10/11 10:01:55;;;;;;;23.07;9.20;;;;;;;14.33;91.13;100708.18;1738498;81;21010;-76
2021/10/11 10:04:28;;;;;;;25.30;8.70;;;;;;;14.37;86.58;100702.18;1735176;81;20987;-80
2021/10/11 10:06:56;;;;;;;22.62;9.10;;;;;;;14.44;85.53;100696.88;1703726;82;21010;-73
2021/10/11 10:09:23;;;;;;;24.37;8.95;;;;;;;14.57;83.99;100707.16;1709058;82;21486;-77
2021/10/11 10:11:52;;;;;;;19.25;8.85;;;;;;;14.74;84.35;100692.95;1735055;80;21002;-75
2021/10/11 10:14:26;;;;;;;21.35;8.65;;;;;;;15.04;85.83;100702.57;1733647;81;20962;-76
2021/10/11 10:16:54;;;;;;;19.50;8.05;;;;;;;15.27;82.45;100692.98;1732972;82;21073;-76
2021/10/11 10:19:37;;;;;;;22.87;11.20;;;;;;;15.46;82.35;100699.25;1716552;82;21105;-74
2021/10/11 10:22:15;;;;;;;18.40;8.90;;;;;;;15.55;75.87;100680.93;1681726;85;21003;-72
2021/10/11 10:24:42;;;;;;;19.23;8.40;;;;;;;15.47;73.40;100672.84;1673590;85;21507;-73
2021/10/11 10:27:13;;;;;;;19.25;8.75;;;;;;;15.15;72.67;100672.16;1656345;85;21535;-75
2021/10/11 10:29:48;;;;;;;18.32;7.92;;;;;;;15.15;72.67;100672.16;1697009;84;21010;-75
2021/10/11 10:32:17;;;;;;;18.95;8.40;;;;;;;15.06;72.62;100674.11;1695289;84;21018;-75
2021/10/11 10:34:59;;;;;;;25.62;12.95;;;;;;;15.03;73.37;100668.19;1698451;84;21693;-73
2021/10/11 10:37:38;;;;;;;24.87;8.70;;;;;;;14.95;73.91;100662.31;1719255;82;21045;-73
2021/10/11 10:40:11;;;;;;;20.08;8.20;;;;;;;14.88;74.77;100659.48;1691467;83;21519;-74
2021/10/11 10:42:38;;;;;;;29.87;11.93;;;;;;;14.70;76.70;100654.89;1700092;83;21026;-74
2021/10/11 10:45:22;;;;;;;15.72;8.08;;;;;;;14.56;78.31;100653.25;1694491;84;21050;-76
2021/10/11 10:47:50;;;;;;;;;;;;;;;14.43;77.76;100653.02;1598634;89;21042;-74
2021/10/11 10:50:22;;;;;;;19.65;7.70;;;;;;;14.31;80.63;100650.39;1544904;92;20439;-74
2021/10/11 10:52:54;;;;;;;25.90;10.15;;;;;;;14.23;83.81;100645.83;1562230;91;21074;-74
2021/10/11 10:55:21;;;;;;;22.60;9.18;;;;;;;14.26;86.06;100642.77;1551704;91;22060;-74
2021/10/11 10:57:48;;;;;;;31.33;13.10;;;;;;;14.33;85.63;100638.81;1552705;91;21520;-75
2021/10/11 11:00:20;;;;;;;22.42;9.48;;;;;;;14.39;86.53;100639.43;1551496;91;21101;-75
2021/10/11 11:02:49;;;;;;;39.85;20.37;;;;;;;14.42;86.53;100641.27;1574397;91;21083;-74
2021/10/11 11:05:18;;;;;;;51.28;28.10;;;;;;;14.38;86.33;100641.84;1579100;91;21569;-76
2021/10/11 11:07:47;;;;;;;94.35;50.78;;;;;;;14.30;87.68;100642.72;1576206;91;21071;-74
2021/10/11 11:10:17;;;;;;;47.38;23.42;;;;;;;14.21;89.61;100641.93;1554632;92;21602;-74
2021/10/11 11:15:37;;;;;;;193.70;94.45;;;;;;;14.25;94.12;100630.17;1480609;97;21104;-72
2021/10/11 11:18:17;;;;;;;163.50;86.08;;;;;;;14.33;94.16;100627.41;1496798;94;21630;-76